createdAt,value
2019-04-05T00:01:40.868Z,101237.73
2019-04-05T00:04:12.347Z,101244.45
2019-04-05T00:06:43.731Z,101238.33
2019-04-05T00:09:15.021Z,101243.29
2019-04-05T00:11:46.328Z,101239.12
2019-04-05T00:14:31.560Z,101235.17
2019-04-05T00:17:02.903Z,101240.64
2019-04-05T00:19:41.114Z,101241.44
2019-04-05T00:22:13.385Z,101248.77
2019-04-05T00:24:44.940Z,101242.50
2019-04-05T00:27:17.390Z,101248.21
2019-04-05T00:29:48.804Z,101252.59
2019-04-05T00:32:20.298Z,101250.38
2019-04-05T00:34:51.591Z,101255.06
2019-04-05T00:37:24.177Z,101252.96
2019-04-05T00:39:56.995Z,101253.72
2019-04-05T00:42:28.241Z,101257.75
2019-04-05T00:44:59.461Z,101259.06
2019-04-05T00:47:30.554Z,101259.74
2019-04-05T00:50:01.671Z,101261.31
2019-04-05T00:52:33.020Z,101261.47
2019-04-05T00:55:06.183Z,101261.05
2019-04-05T00:57:38.397Z,101255.44
2019-04-05T01:00:09.575Z,101265.14
2019-04-05T01:02:40.667Z,101259.84
2019-04-05T01:05:11.937Z,101260.32
2019-04-05T01:07:43.249Z,101257.30
2019-04-05T01:10:14.977Z,101256.56
2019-04-05T01:12:49.101Z,101256.53
2019-04-05T01:15:20.497Z,101249.99
2019-04-05T01:17:53.775Z,101250.89
2019-04-05T01:20:25.698Z,101251.05
2019-04-05T01:22:58.053Z,101255.83
2019-04-05T01:25:29.416Z,101247.89
2019-04-05T01:28:01.593Z,101251.36
2019-04-05T01:30:32.811Z,101252.32
2019-04-05T01:33:04.341Z,101257.90
2019-04-05T01:35:35.898Z,101250.09
2019-04-05T01:38:07.458Z,101256.59
2019-04-05T01:40:38.958Z,101254.65
2019-04-05T01:43:10.345Z,101255.50
2019-04-05T01:45:53.136Z,101258.53
2019-04-05T01:48:15.212Z,101258.95
2019-04-05T01:50:46.424Z,101257.73
2019-04-05T01:53:18.287Z,101262.93
2019-04-05T01:55:49.689Z,101262.88
2019-04-05T01:58:23.002Z,101264.80
2019-04-05T02:00:56.095Z,101269.56
2019-04-05T02:03:27.494Z,101270.86
2019-04-05T02:05:59.122Z,101270.95
2019-04-05T02:08:30.598Z,101276.23
2019-04-05T02:11:02.028Z,101277.69
2019-04-05T02:13:33.479Z,101282.41
2019-04-05T02:16:06.459Z,101283.30
2019-04-05T02:18:38.604Z,101281.82
2019-04-05T02:21:10.101Z,101286.24
2019-04-05T02:23:41.519Z,101292.05
2019-04-05T02:26:12.711Z,101299.55
2019-04-05T02:28:46.589Z,101305.33
2019-04-05T02:31:17.939Z,101313.23
2019-04-05T02:33:50.170Z,101307.80
2019-04-05T02:36:21.621Z,101311.91
2019-04-05T02:38:53.091Z,101312.84
2019-04-05T02:41:24.563Z,101314.95
2019-04-05T02:43:55.599Z,101318.00
2019-04-05T02:46:26.977Z,101317.14
2019-04-05T02:48:58.301Z,101325.37
2019-04-05T02:51:29.304Z,101317.54
2019-04-05T02:54:00.704Z,101320.52
2019-04-05T02:56:31.938Z,101323.06
2019-04-05T02:59:04.313Z,101323.56
2019-04-05T03:01:35.916Z,101329.75
2019-04-05T03:04:07.547Z,101329.81
2019-04-05T03:06:38.897Z,101334.53
2019-04-05T03:09:13.987Z,101337.12
2019-04-05T03:11:45.252Z,101340.15
2019-04-05T03:14:16.730Z,101336.80
2019-04-05T03:16:51.285Z,101344.59
2019-04-05T03:19:26.085Z,101350.30
2019-04-05T03:22:00.336Z,101346.50
2019-04-05T03:24:31.681Z,101353.01
2019-04-05T03:27:05.286Z,101360.73
2019-04-05T03:29:36.871Z,101358.52
2019-04-05T03:32:09.087Z,101365.00
2019-04-05T03:34:40.301Z,101369.31
2019-04-05T03:37:11.601Z,101374.92
2019-04-05T03:39:42.916Z,101384.38
2019-04-05T03:42:16.784Z,101386.59
2019-04-05T03:44:48.134Z,101383.17
2019-04-05T03:47:21.425Z,101387.48
2019-04-05T03:49:52.786Z,101388.32
2019-04-05T03:52:23.967Z,101389.55
2019-04-05T03:54:55.164Z,101395.80
2019-04-05T03:57:27.559Z,101392.75
2019-04-05T03:59:58.688Z,101397.46
2019-04-05T04:02:29.955Z,101396.23
2019-04-05T04:05:01.147Z,101398.48
2019-04-05T04:07:32.393Z,101402.76
2019-04-05T04:10:03.449Z,101400.54
2019-04-05T04:12:34.626Z,101405.22
2019-04-05T04:15:14.125Z,101404.34
2019-04-05T04:17:46.015Z,101408.33
2019-04-05T04:20:38.302Z,101412.95
2019-04-05T04:23:09.657Z,101413.48
2019-04-05T04:25:41.634Z,101420.91
2019-04-05T04:28:12.824Z,101413.05
2019-04-05T04:30:44.056Z,101416.11
2019-04-05T04:33:15.431Z,101423.00
2019-04-05T04:35:46.651Z,101415.30
2019-04-05T04:38:17.918Z,101423.00
2019-04-05T04:40:49.234Z,101419.55
2019-04-05T04:43:20.443Z,101418.49
2019-04-05T04:45:51.735Z,101416.97
2019-04-05T04:48:23.990Z,101417.44
2019-04-05T04:50:55.127Z,101417.39
2019-04-05T04:53:27.992Z,101416.61
2019-04-05T04:55:59.192Z,101421.98
2019-04-05T04:58:32.936Z,101420.30
2019-04-05T05:01:05.990Z,101422.47
2019-04-05T05:03:37.108Z,101423.69
2019-04-05T05:06:08.397Z,101425.42
2019-04-05T05:08:40.585Z,101426.21
2019-04-05T05:11:14.904Z,101425.80
2019-04-05T05:13:44.890Z,101425.75
2019-04-05T05:16:16.071Z,101423.75
2019-04-05T05:18:49.041Z,101423.49
2019-04-05T05:21:20.542Z,101421.89
2019-04-05T05:23:51.839Z,101429.11
2019-04-05T05:26:23.237Z,101429.98
2019-04-05T05:28:55.636Z,101427.63
2019-04-05T05:31:26.734Z,101426.52
2019-04-05T05:33:58.943Z,101428.02
2019-04-05T05:36:30.181Z,101425.12
2019-04-05T05:39:01.410Z,101430.20
2019-04-05T05:41:33.928Z,101425.95
2019-04-05T05:44:05.378Z,101430.67
2019-04-05T05:46:36.634Z,101426.52
2019-04-05T05:49:07.871Z,101432.48
2019-04-05T05:51:39.078Z,101434.81
2019-04-05T05:54:10.347Z,101429.06
2019-04-05T05:56:42.030Z,101435.06
2019-04-05T05:59:13.352Z,101433.20
2019-04-05T06:01:44.604Z,101433.65
2019-04-05T06:04:16.289Z,101431.45
2019-04-05T06:06:47.518Z,101436.06
2019-04-05T06:09:22.518Z,101431.16
2019-04-05T06:11:53.720Z,101431.39
2019-04-05T06:14:24.981Z,101435.36
2019-04-05T06:16:56.107Z,101434.18
2019-04-05T06:19:28.255Z,101436.19
2019-04-05T06:21:59.336Z,101438.20
2019-04-05T06:24:30.356Z,101436.07
2019-04-05T06:27:01.521Z,101443.33
2019-04-05T06:29:32.688Z,101440.58
2019-04-05T06:32:06.038Z,101448.69
2019-04-05T06:34:37.717Z,101442.86
2019-04-05T06:37:09.066Z,101459.24
2019-04-05T06:39:44.122Z,101452.96
2019-04-05T06:42:15.423Z,101456.26
2019-04-05T06:44:46.733Z,101454.58
2019-04-05T06:47:17.853Z,101447.92
2019-04-05T06:49:49.212Z,101459.09
2019-04-05T06:52:20.376Z,101458.81
2019-04-05T06:54:51.985Z,101454.94
2019-04-05T06:57:23.152Z,101454.44
2019-04-05T07:00:01.497Z,101456.25
2019-04-05T07:02:33.336Z,101454.11
2019-04-05T07:05:07.499Z,101463.84
2019-04-05T07:07:41.444Z,101467.27
2019-04-05T07:10:13.905Z,101467.97
2019-04-05T07:12:45.058Z,101469.88
2019-04-05T07:15:17.086Z,101461.35
2019-04-05T07:17:48.110Z,101462.27
2019-04-05T07:20:19.229Z,101471.30
2019-04-05T07:22:50.271Z,101469.93
2019-04-05T07:25:21.378Z,101471.05
2019-04-05T07:27:53.721Z,101476.20
2019-04-05T07:30:24.835Z,101469.66
2019-04-05T07:32:56.110Z,101469.25
2019-04-05T07:35:33.264Z,101467.64
2019-04-05T07:38:00.362Z,101468.92
2019-04-05T07:40:32.165Z,101470.50
2019-04-05T07:43:06.380Z,101465.88
2019-04-05T07:45:37.577Z,101466.45
2019-04-05T07:48:08.894Z,101465.34
2019-04-05T07:50:40.093Z,101465.22
2019-04-05T07:53:17.985Z,101464.30
2019-04-05T07:55:53.319Z,101464.60
2019-04-05T07:58:26.655Z,101462.88
2019-04-05T08:01:02.219Z,101464.63
2019-04-05T08:03:36.090Z,101468.03
2019-04-05T08:06:09.559Z,101465.72
2019-04-05T08:08:46.895Z,101465.01
2019-04-05T08:11:19.008Z,101464.89
2019-04-05T08:13:50.302Z,101465.47
2019-04-05T08:16:21.667Z,101461.57
2019-04-05T08:18:58.169Z,101462.33
2019-04-05T08:21:29.368Z,101467.69
2019-04-05T08:24:00.539Z,101461.88
2019-04-05T08:26:32.030Z,101460.90
2019-04-05T08:29:03.199Z,101452.61
2019-04-05T08:31:36.189Z,101451.05
2019-04-05T08:34:07.477Z,101445.80
2019-04-05T08:36:38.845Z,101448.17
2019-04-05T08:39:10.052Z,101451.60
2019-04-05T08:41:42.263Z,101447.64
2019-04-05T08:44:13.506Z,101446.85
2019-04-05T08:46:44.747Z,101448.18
2019-04-05T08:49:16.092Z,101451.92
2019-04-05T08:51:47.279Z,101449.14
2019-04-05T08:54:31.574Z,101450.89
2019-04-05T08:56:53.142Z,101449.03
2019-04-05T08:59:27.201Z,101445.75
2019-04-05T09:01:58.320Z,101445.11
2019-04-05T09:04:29.516Z,101447.35
2019-04-05T09:07:02.364Z,101443.00
2019-04-05T09:09:34.650Z,101439.17
2019-04-05T09:12:05.731Z,101437.04
2019-04-05T09:14:39.728Z,101436.70
2019-04-05T09:17:15.306Z,101435.27
2019-04-05T09:19:49.164Z,101439.94
2019-04-05T09:22:21.483Z,101436.83
2019-04-05T09:24:54.326Z,101433.71
2019-04-05T09:27:26.488Z,101430.28
2019-04-05T09:29:57.775Z,101430.70
2019-04-05T09:32:28.987Z,101431.67
2019-04-05T09:35:00.309Z,101424.18
2019-04-05T09:37:33.026Z,101423.75
2019-04-05T09:40:08.076Z,101423.47
2019-04-05T09:42:41.800Z,101414.31
2019-04-05T09:45:12.974Z,101423.27
2019-04-05T09:47:46.133Z,101422.81
2019-04-05T09:50:17.749Z,101419.97
2019-04-05T09:52:50.002Z,101416.70
2019-04-05T09:55:21.397Z,101422.45
2019-04-05T09:57:52.626Z,101425.33
2019-04-05T10:00:25.452Z,101416.99
2019-04-05T10:02:59.979Z,101418.31
2019-04-05T10:05:31.115Z,101422.03
2019-04-05T10:08:02.302Z,101416.19
2019-04-05T10:10:33.394Z,101415.02
2019-04-05T10:13:09.754Z,101419.48
2019-04-05T10:15:42.194Z,101415.12
2019-04-05T10:18:13.392Z,101413.82
2019-04-05T10:20:45.669Z,101411.81
2019-04-05T10:23:16.868Z,101409.64
2019-04-05T10:25:48.012Z,101410.66
2019-04-05T10:28:19.122Z,101414.55
2019-04-05T10:30:51.891Z,101403.47
2019-04-05T10:33:24.255Z,101401.80
2019-04-05T10:35:55.490Z,101406.40
2019-04-05T10:38:27.650Z,101405.59
2019-04-05T10:40:58.757Z,101402.86
2019-04-05T10:43:30.145Z,101403.02
2019-04-05T10:46:01.353Z,101398.66
2019-04-05T10:48:35.232Z,101400.06
2019-04-05T10:51:05.293Z,101399.08
2019-04-05T10:53:36.806Z,101397.64
2019-04-05T10:56:08.219Z,101390.42
2019-04-05T10:58:39.502Z,101397.22
2019-04-05T11:01:13.632Z,101386.16
2019-04-05T11:03:44.936Z,101388.33
2019-04-05T11:06:16.051Z,101391.83
2019-04-05T11:08:47.437Z,101390.11
2019-04-05T11:11:18.791Z,101386.63
2019-04-05T11:13:50.046Z,101389.23
2019-04-05T11:16:21.442Z,101386.80
2019-04-05T11:18:53.514Z,101383.89
2019-04-05T11:21:25.610Z,101383.52
2019-04-05T11:24:02.930Z,101384.23
2019-04-05T11:26:35.981Z,101377.55
2019-04-05T11:29:07.645Z,101369.80
2019-04-05T11:31:41.361Z,101372.77
2019-04-05T11:34:14.019Z,101362.37
2019-04-05T11:36:48.773Z,101369.34
2019-04-05T11:39:20.405Z,101365.41
2019-04-05T11:41:53.444Z,101364.97
2019-04-05T11:44:24.784Z,101356.05
2019-04-05T11:46:57.595Z,101361.61
2019-04-05T11:49:28.864Z,101351.23
2019-04-05T11:52:01.613Z,101347.72
2019-04-05T11:54:32.748Z,101347.22
2019-04-05T11:57:04.002Z,101346.95
2019-04-05T11:59:35.092Z,101340.90
2019-04-05T12:02:24.171Z,101340.26
2019-04-05T12:04:57.047Z,101338.56
2019-04-05T12:07:28.270Z,101333.45
2019-04-05T12:10:01.434Z,101340.37
2019-04-05T12:12:32.491Z,101339.70
2019-04-05T12:15:06.982Z,101333.25
2019-04-05T12:17:38.231Z,101332.35
2019-04-05T12:20:09.271Z,101330.03
2019-04-05T12:22:45.133Z,101329.84
2019-04-05T12:25:16.214Z,101324.19
2019-04-05T12:27:48.852Z,101326.91
2019-04-05T12:30:24.365Z,101319.17
2019-04-05T12:32:55.487Z,101317.46
2019-04-05T12:35:27.091Z,101316.47
2019-04-05T12:37:58.245Z,101312.23
2019-04-05T12:40:29.911Z,101317.98
2019-04-05T12:43:03.945Z,101312.00
2019-04-05T12:45:35.271Z,101315.80
2019-04-05T12:48:06.363Z,101314.89
2019-04-05T12:50:37.565Z,101310.05
2019-04-05T12:53:08.764Z,101313.47
2019-04-05T12:55:40.052Z,101311.95
2019-04-05T12:58:12.819Z,101309.81
2019-04-05T13:00:44.054Z,101309.28
2019-04-05T13:03:15.221Z,101301.95
2019-04-05T13:05:46.365Z,101303.55
2019-04-05T13:08:17.514Z,101305.63
2019-04-05T13:10:48.913Z,101298.71
2019-04-05T13:13:20.069Z,101297.33
2019-04-05T13:15:51.102Z,101295.83
2019-04-05T13:18:25.007Z,101297.25
2019-04-05T13:20:55.154Z,101291.14
2019-04-05T13:23:26.204Z,101290.77
2019-04-05T13:25:57.238Z,101296.08
2019-04-05T13:28:28.416Z,101293.05
2019-04-05T13:30:59.522Z,101285.33
2019-04-05T13:33:30.676Z,101289.51
2019-04-05T13:36:02.416Z,101295.64
2019-04-05T13:38:33.541Z,101289.89
2019-04-05T13:41:04.740Z,101292.31
2019-04-05T13:43:50.289Z,101295.69
2019-04-05T13:46:26.079Z,101285.87
2019-04-05T13:48:56.649Z,101297.02
2019-04-05T13:51:31.694Z,101294.14
2019-04-05T13:54:01.969Z,101295.13
2019-04-05T13:56:33.305Z,101291.75
2019-04-05T13:59:04.547Z,101288.56
2019-04-05T14:01:35.759Z,101293.04
2019-04-05T14:04:07.003Z,101292.13
2019-04-05T14:06:38.202Z,101289.75
2019-04-05T14:09:10.461Z,101292.56
2019-04-05T14:11:42.056Z,101296.64
2019-04-05T14:14:14.788Z,101295.10
2019-04-05T14:16:46.227Z,101297.72
2019-04-05T14:19:20.387Z,101291.33
2019-04-05T14:21:53.494Z,101301.80
2019-04-05T14:24:26.549Z,101300.83
2019-04-05T14:26:57.729Z,101297.16
2019-04-05T14:29:28.820Z,101301.05
2019-04-05T14:32:19.191Z,101297.00
2019-04-05T14:34:33.396Z,101298.05
2019-04-05T14:37:04.729Z,101297.68
2019-04-05T14:39:35.890Z,101297.27
2019-04-05T14:42:10.174Z,101302.72
2019-04-05T14:44:47.284Z,101301.34
2019-04-05T14:47:19.946Z,101299.33
2019-04-05T14:49:51.273Z,101306.91
2019-04-05T14:52:25.369Z,101298.27
2019-04-05T14:54:55.224Z,101304.54
2019-04-05T14:57:26.370Z,101303.28
2019-04-05T14:59:57.649Z,101300.22
2019-04-05T15:02:29.093Z,101299.03
2019-04-05T15:05:00.340Z,101303.54
2019-04-05T15:07:31.600Z,101303.30
2019-04-05T15:10:03.887Z,101300.65
2019-04-05T15:12:35.219Z,101302.68
2019-04-05T15:15:07.664Z,101303.06
2019-04-05T15:17:47.898Z,101299.46
2019-04-05T15:20:11.736Z,101300.79
2019-04-05T15:22:43.832Z,101294.92
2019-04-05T15:25:17.852Z,101295.43
2019-04-05T15:27:51.261Z,101302.95
2019-04-05T15:30:25.505Z,101298.13
2019-04-05T15:32:58.455Z,101298.86
2019-04-05T15:35:28.806Z,101298.54
2019-04-05T15:38:02.856Z,101299.80
2019-04-05T15:40:34.014Z,101301.84
2019-04-05T15:43:05.172Z,101293.20
2019-04-05T15:45:37.275Z,101301.86
2019-04-05T15:48:08.349Z,101292.69
2019-04-05T15:50:39.527Z,101290.35
2019-04-05T15:53:11.111Z,101288.89
2019-04-05T15:55:42.329Z,101299.09
2019-04-05T15:58:13.543Z,101296.61
2019-04-05T16:00:46.895Z,101297.38
2019-04-05T16:03:18.040Z,101298.29
2019-04-05T16:05:49.452Z,101296.77
2019-04-05T16:08:22.194Z,101296.08
2019-04-05T16:10:53.865Z,101303.93
2019-04-05T16:13:24.965Z,101304.06
2019-04-05T16:15:56.128Z,101301.10
2019-04-05T16:18:28.796Z,101310.66
2019-04-05T16:20:59.898Z,101309.36
2019-04-05T16:23:31.403Z,101312.92
2019-04-05T16:26:02.544Z,101312.44
2019-04-05T16:28:33.745Z,101316.72
2019-04-05T16:31:04.911Z,101316.16
2019-04-05T16:33:36.099Z,101318.20
2019-04-05T16:36:07.234Z,101324.31
2019-04-05T16:38:38.265Z,101325.06
2019-04-05T16:41:09.502Z,101330.94
2019-04-05T16:43:40.711Z,101336.90
2019-04-05T16:46:11.898Z,101340.75
2019-04-05T16:48:43.060Z,101335.34
2019-04-05T16:51:14.406Z,101346.07
2019-04-05T16:54:01.766Z,101344.55
2019-04-05T16:56:32.903Z,101343.89
2019-04-05T16:59:04.357Z,101352.95
2019-04-05T17:01:36.494Z,101352.31
2019-04-05T17:04:07.736Z,101355.92
2019-04-05T17:06:38.786Z,101356.19
2019-04-05T17:09:10.973Z,101355.09
2019-04-05T17:11:42.093Z,101362.27
2019-04-05T17:14:13.236Z,101365.13
2019-04-05T17:16:44.397Z,101359.95
2019-04-05T17:19:15.512Z,101363.25
2019-04-05T17:21:46.733Z,101361.68
2019-04-05T17:24:18.176Z,101361.76
2019-04-05T17:26:49.386Z,101363.15
2019-04-05T17:29:21.733Z,101363.15
2019-04-05T17:31:52.958Z,101362.30
2019-04-05T17:34:24.717Z,101360.30
2019-04-05T17:36:55.935Z,101368.36
2019-04-05T17:39:27.066Z,101364.97
2019-04-05T17:41:58.229Z,101363.86
2019-04-05T17:44:29.401Z,101368.40
2019-04-05T17:47:00.913Z,101368.18
2019-04-05T17:49:32.051Z,101370.03
2019-04-05T17:52:03.254Z,101365.78
2019-04-05T17:54:34.687Z,101365.84
2019-04-05T17:57:05.906Z,101366.48
2019-04-05T17:59:37.098Z,101362.27
2019-04-05T18:02:08.350Z,101365.08
2019-04-05T18:04:39.438Z,101362.97
2019-04-05T18:07:13.176Z,101363.21
2019-04-05T18:09:44.354Z,101363.45
2019-04-05T18:12:15.545Z,101364.05
2019-04-05T18:14:50.062Z,101362.90
2019-04-05T18:17:20.418Z,101367.42
2019-04-05T18:19:51.655Z,101364.91
2019-04-05T18:22:22.800Z,101365.54
2019-04-05T18:24:53.993Z,101368.38
2019-04-05T18:27:26.289Z,101368.94
2019-04-05T18:29:57.473Z,101366.46
2019-04-05T18:32:31.103Z,101364.97
2019-04-05T18:35:01.606Z,101371.36
2019-04-05T18:37:35.125Z,101367.44
2019-04-05T18:40:08.227Z,101368.89
2019-04-05T18:42:39.516Z,101367.11
2019-04-05T18:45:10.615Z,101369.41
2019-04-05T18:47:42.728Z,101366.08
2019-04-05T18:50:15.466Z,101368.66
2019-04-05T18:52:46.610Z,101363.93
2019-04-05T18:55:17.797Z,101365.44
2019-04-05T18:57:48.872Z,101362.04
2019-04-05T19:00:21.302Z,101368.59
2019-04-05T19:02:52.381Z,101366.52
2019-04-05T19:05:23.672Z,101361.92
2019-04-05T19:07:54.735Z,101368.27
2019-04-05T19:10:36.445Z,101368.87
2019-04-05T19:12:59.475Z,101377.84
2019-04-05T19:15:30.782Z,101375.28
2019-04-05T19:18:04.794Z,101373.02
2019-04-05T19:20:37.010Z,101372.37
2019-04-05T19:23:08.516Z,101378.44
2019-04-05T19:25:39.674Z,101377.19
2019-04-05T19:28:10.843Z,101376.02
2019-04-05T19:48:35.712Z,101379.05
2019-04-05T19:51:07.399Z,101373.46
2019-04-05T19:53:40.629Z,101376.34
2019-04-05T19:56:14.257Z,101372.94
2019-04-05T19:58:46.460Z,101373.18
2019-04-05T20:01:17.635Z,101374.21
2019-04-05T20:03:48.746Z,101372.12
2019-04-05T20:06:20.855Z,101377.97
2019-04-05T20:08:52.014Z,101383.48
2019-04-05T20:11:23.091Z,101382.12
2019-04-05T20:13:54.255Z,101384.81
2019-04-05T20:16:25.445Z,101383.03
2019-04-05T20:18:57.482Z,101383.71
2019-04-05T20:21:28.715Z,101384.80
2019-04-05T20:24:00.044Z,101387.38
2019-04-05T20:26:31.174Z,101385.27
2019-04-05T20:29:02.357Z,101388.18
2019-04-05T20:31:33.792Z,101386.98
2019-04-05T20:34:04.909Z,101387.23
2019-04-05T20:36:35.980Z,101394.56
2019-04-05T20:39:08.052Z,101397.31
2019-04-05T20:41:39.220Z,101400.14
2019-04-05T20:44:10.304Z,101396.67
2019-04-05T20:46:42.564Z,101393.89
2019-04-05T20:49:13.649Z,101398.03
2019-04-05T20:51:44.930Z,101392.71
2019-04-05T20:54:24.256Z,101403.08
2019-04-05T20:56:48.870Z,101395.64
2019-04-05T20:59:21.150Z,101401.69
2019-04-05T21:01:52.229Z,101395.28
2019-04-05T21:04:23.541Z,101401.45
2019-04-05T21:06:58.568Z,101405.94
2019-04-05T21:09:29.979Z,101398.63
2019-04-05T21:12:01.139Z,101403.35
2019-04-05T21:14:32.657Z,101408.06
2019-04-05T21:17:05.365Z,101410.85
2019-04-05T21:19:37.535Z,101402.80
2019-04-05T21:22:08.791Z,101405.53
2019-04-05T21:24:39.873Z,101407.53
2019-04-05T21:27:12.684Z,101403.25
2019-04-05T21:29:43.920Z,101402.05
2019-04-05T21:32:15.065Z,101408.16
2019-04-05T21:34:46.248Z,101408.27
2019-04-05T21:37:17.479Z,101409.63
2019-04-05T21:39:49.488Z,101418.23
2019-04-05T21:42:20.700Z,101410.47
2019-04-05T21:44:52.152Z,101410.27
2019-04-05T21:47:23.556Z,101408.84
2019-04-05T21:49:55.084Z,101412.16
2019-04-05T21:52:27.845Z,101407.79
2019-04-05T21:54:59.306Z,101412.19
2019-04-05T21:57:32.254Z,101413.94
2019-04-05T22:00:05.745Z,101411.78
2019-04-05T22:02:38.704Z,101418.49
2019-04-05T22:05:10.253Z,101414.05
2019-04-05T22:07:41.729Z,101415.86
2019-04-05T22:10:14.249Z,101418.25
2019-04-05T22:12:45.749Z,101415.27
2019-04-05T22:15:17.251Z,101419.21
2019-04-05T22:17:48.589Z,101414.00
2019-04-05T22:20:20.000Z,101417.90
2019-04-05T22:22:51.448Z,101411.58
2019-04-05T22:25:23.458Z,101414.06
2019-04-05T22:28:01.146Z,101414.21
2019-04-05T22:30:33.634Z,101412.66
2019-04-05T22:33:06.785Z,101411.44
2019-04-05T22:35:42.068Z,101410.08
2019-04-05T22:38:15.195Z,101417.55
2019-04-05T22:41:06.402Z,101416.13
2019-04-05T22:43:38.026Z,101414.42
2019-04-05T22:46:11.175Z,101417.19
2019-04-05T22:48:48.921Z,101419.83
2019-04-05T22:51:20.474Z,101419.56
2019-04-05T22:53:54.140Z,101422.84
2019-04-05T22:56:25.780Z,101421.94
2019-04-05T22:58:57.315Z,101425.96
2019-04-05T23:01:28.949Z,101426.60
2019-04-05T23:04:03.158Z,101422.31
2019-04-05T23:06:35.230Z,101422.66
2019-04-05T23:09:07.998Z,101418.73
2019-04-05T23:11:39.550Z,101419.69
2019-04-05T23:14:11.142Z,101416.03
2019-04-05T23:16:46.503Z,101420.97
2019-04-05T23:19:21.090Z,101418.83
2019-04-05T23:21:52.624Z,101421.45
2019-04-05T23:24:24.282Z,101422.12
2019-04-05T23:26:55.795Z,101423.48
2019-04-05T23:29:32.290Z,101416.42
2019-04-05T23:32:06.642Z,101420.21
2019-04-05T23:34:38.347Z,101425.20
2019-04-05T23:37:09.781Z,101423.71
2019-04-05T23:39:42.254Z,101426.34
2019-04-05T23:42:14.201Z,101427.01
2019-04-05T23:44:47.309Z,101417.47
2019-04-05T23:47:18.769Z,101428.88
2019-04-05T23:49:50.105Z,101424.58
2019-04-05T23:52:21.690Z,101425.75
2019-04-05T23:54:53.244Z,101423.84
2019-04-05T23:57:24.667Z,101431.73
2019-04-05T23:59:57.434Z,101425.41
